Home > Products > Valid Products > MTR

000
SAUS43 KMQT 120504 COR
MTRP53
METAR KP53 120456Z AUTO 24007KT 220V280 M10/M17 A3002 RMK AO1 SLP178
T11001172 410831128





000
SAUS43 KMQT 120504 COR
MTRP53
METAR KP53 120456Z AUTO 24007KT 220V280 M10/M17 A3002 RMK AO1 SLP178
T11001172 410831128





000
SAUS43 KMQT 120454
MTRP59
METAR KP59 120451Z AUTO 36026G31KT M08/M12 A2999 RMK AO1 PK WND
34034/0404 SLP176 T10781122 410611122





000
SAUS43 KMQT 120454
MTRP59
METAR KP59 120451Z AUTO 36026G31KT M08/M12 A2999 RMK AO1 PK WND
34034/0404 SLP176 T10781122 410611122





000
SAUS43 KMQT 120404 COR
MTRP53
METAR KP53 120356Z AUTO 21004KT M10/M17 A3004 RMK AO1 SLP184
T11001172





000
SAUS43 KMQT 120404 COR
MTRP53
METAR KP53 120356Z AUTO 21004KT M10/M17 A3004 RMK AO1 SLP184
T11001172





000
SAUS43 KMQT 120353
MTRP59
METAR KP59 120351Z AUTO 36027G36KT M08/M12 A2999 RMK AO1 PK WND
36036/0332 SLP175 T10781122





000
SAUS43 KMQT 120353
MTRP59
METAR KP59 120351Z AUTO 36027G36KT M08/M12 A2999 RMK AO1 PK WND
36036/0332 SLP175 T10781122





000
SAUS43 KMQT 120304 COR
MTRP53
METAR KP53 120256Z AUTO 19006KT M12/M16 A3007 RMK AO1 SLP197
T11221161 58013





000
SAUS43 KMQT 120304 COR
MTRP53
METAR KP53 120256Z AUTO 19006KT M12/M16 A3007 RMK AO1 SLP197
T11221161 58013





000
SAUS43 KMQT 120254
MTRP59
METAR KP59 120251Z AUTO 35027G33KT M07/M12 A2999 RMK AO1 PK WND
35035/0223 SLP177 60003 T10671117 58016





000
SAUS43 KMQT 120205 COR
MTRP53
METAR KP53 120156Z AUTO 22003KT M12/M16 A3008 RMK AO1 SLP201
T11221156





000
SAUS43 KMQT 120154
MTRP59
METAR KP59 120151Z AUTO 33008G21KT M07/M12 A3001 RMK AO1 PK WND
32029/0132 SLP183 T10721122





000
SAUS43 KMQT 120154
MTRP59
METAR KP59 120151Z AUTO 33008G21KT M07/M12 A3001 RMK AO1 PK WND
32029/0132 SLP183 T10721122





000
SAUS43 KMQT 120105 COR
MTRP53
METAR KP53 120056Z AUTO 20003KT M12/M16 A3010 RMK AO1 SLP208
T11171156





000
SAUS43 KMQT 120105 COR
MTRP53
METAR KP53 120056Z AUTO 20003KT M12/M16 A3010 RMK AO1 SLP208
T11171156





000
SAUS43 KMQT 120054
MTRP59
METAR KP59 120051Z AUTO 31008G15KT 270V350 M08/M11 A3003 RMK AO1
SLP190 P0003 T10781106





000
SAUS43 KMQT 120054
MTRP59
METAR KP59 120051Z AUTO 31008G15KT 270V350 M08/M11 A3003 RMK AO1
SLP190 P0003 T10781106





000
SAUS43 KMQT 120005 COR
MTRP53
METAR KP53 112356Z AUTO 21003KT M10/M16 A3011 RMK AO1 SLP209
T11001156 11083 21100 56009





000
SAUS43 KMQT 120005 COR
MTRP53
METAR KP53 112356Z AUTO 21003KT M10/M16 A3011 RMK AO1 SLP209
T11001156 11083 21100 56009





000
SAUS43 KMQT 112354
MTRP59
METAR KP59 112351Z AUTO 26006KT M09/M11 A3004 RMK AO1 SLP194 P0003
60004 T10941111 11083 21106 56017





000
SAUS43 KMQT 112304 COR
MTRP53
METAR KP53 112256Z AUTO 23006KT M09/M15 A3011 RMK AO1 SLP209
T10891150





000
SAUS43 KMQT 112304 COR
MTRP53
METAR KP53 112256Z AUTO 23006KT M09/M15 A3011 RMK AO1 SLP209
T10891150





000
SAUS43 KMQT 112254
MTRP59
METAR KP59 112251Z AUTO VRB05KT M09/M13 A3005 RMK AO1 SLP197 P0001
T10891128





000
SAUS43 KMQT 112205 COR
MTRP53
METAR KP53 112156Z AUTO VRB04KT M09/M15 A3012 RMK AO1 SLP214
T10891150





000
SAUS43 KMQT 112154
MTRP59
METAR KP59 112151Z AUTO 31008KT 160V360 M09/M13 A3007 RMK AO1 SLP205
T10891133





000
SAUS43 KMQT 112104 COR
MTRP53
METAR KP53 112056Z AUTO 27007KT M09/M16 A3014 RMK AO1 SLP219
T10891161 58006





000
SAUS43 KMQT 112053
MTRP59
METAR KP59 112051Z AUTO 32009G17KT M09/M13 A3009 RMK AO1 SLP211
T10891128 58019





000
SAUS43 KMQT 112004 COR
MTRP53
METAR KP53 111956Z AUTO 29008KT M09/M17 A3014 RMK AO1 SLP221
T10891167





000
SAUS43 KMQT 111954
MTRP59
METAR KP59 111951Z AUTO 33010G19KT M09/M14 A3011 RMK AO1 SLP217
T10941139





000
SAUS43 KMQT 111904 COR
MTRP53
METAR KP53 111856Z AUTO 28010G16KT M09/M16 A3015 RMK AO1 SLP224
T10891161





000
SAUS43 KMQT 111853
MTRP59
METAR KP59 111851Z AUTO 36018G26KT M09/M15 A3013 RMK AO1 PK WND
35026/1849 SLP225 T10941150





000
SAUS43 KMQT 111804 COR
MTRP53
METAR KP53 111756Z AUTO 31014G20KT M09/M15 A3016 RMK AO1 SLP225
60008 T10941150 11089 21106 58000





000
SAUS43 KMQT 111752
MTRP59
METAR KP59 111751Z AUTO 35016G25KT M11/M14 A3015 RMK AO1 PK WND
35026/1722 SLP231 60001 T11061144 11106 21122 58005





000
SAUS43 KMQT 111752
MTRP59
METAR KP59 111751Z AUTO 35016G25KT M11/M14 A3015 RMK AO1 PK WND
35026/1722 SLP231 60001 T11061144 11106 21122 58005





000
SAUS43 KMQT 111704 COR
MTRP53
METAR KP53 111656Z AUTO 29012G18KT M09/M15 A3016 RMK AO1 SLP227
P0002 T10941150





000
SAUS43 KMQT 111704 COR
MTRP53
METAR KP53 111656Z AUTO 29012G18KT M09/M15 A3016 RMK AO1 SLP227
P0002 T10941150





000
SAUS43 KMQT 111652
MTRP59
METAR KP59 111651Z AUTO 35017G23KT M11/M15 A3016 RMK AO1 SLP237
T11111150





000
SAUS43 KMQT 111603 COR
MTRP53
METAR KP53 111556Z AUTO 27008KT M11/M13 A3016 RMK AO1 SLP228 P0003
T11061133





000
SAUS43 KMQT 111552
MTRP59
METAR KP59 111551Z AUTO 36018G24KT M11/M16 A3017 RMK AO1 SLP238
T11111161





000
SAUS43 KMQT 111504 COR
MTRP53
METAR KP53 111456Z AUTO 27006KT M11/M14 A3016 RMK AO1 SLP227 P0001
60003 T11061139 51008





000
SAUS43 KMQT 111504 COR
MTRP53
METAR KP53 111456Z AUTO 27006KT M11/M14 A3016 RMK AO1 SLP227 P0001
60003 T11061139 51008





000
SAUS43 KMQT 111454
MTRP59
METAR KP59 111451Z AUTO 35016G20KT M12/M17 A3017 RMK AO1 SLP238
60001 T11171167 51003





000
SAUS43 KMQT 111454
MTRP59
METAR KP59 111451Z AUTO 35016G20KT M12/M17 A3017 RMK AO1 SLP238
60001 T11171167 51003





000
SAUS43 KMQT 111404 COR
MTRP53
METAR KP53 111356Z AUTO 30008KT M10/M14 A3015 RMK AO1 SLP224 P0002
T11001144





000
SAUS43 KMQT 111353
MTRP59
METAR KP59 111351Z AUTO 01014KT M12/M15 A3017 RMK AO1 SLP237 P0001
T11171150





000
SAUS43 KMQT 111304 COR
MTRP53
METAR KP53 111256Z AUTO 01007KT M11/M13 A3015 RMK AO1 SLP223
T11061133





000
SAUS43 KMQT 111304 COR
MTRP53
METAR KP53 111256Z AUTO 01007KT M11/M13 A3015 RMK AO1 SLP223
T11061133





000
SAUS43 KMQT 111253
MTRP59
METAR KP59 111251Z AUTO 36016KT M12/M16 A3017 RMK AO1 SLP237
T11171156





000
SAUS43 KMQT 111253
MTRP59
METAR KP59 111251Z AUTO 36016KT M12/M16 A3017 RMK AO1 SLP237
T11171156





000
SAUS43 KMQT 111204 COR
MTRP53
METAR KP53 111156Z AUTO 36010KT M11/M14 A3013 RMK AO1 SLP219 70006
T11061144 11106 21117 53013





000
SAUS43 KMQT 111204 COR
MTRP53
METAR KP53 111156Z AUTO 36010KT M11/M14 A3013 RMK AO1 SLP219 70006
T11061144 11106 21117 53013





000
SAUS43 KMQT 111154
MTRP59
METAR KP59 111151Z AUTO 01012G19KT M12/M15 A3016 RMK AO1 SLP234
T11171150 11111 21117 50005





000
SAUS43 KMQT 111154
MTRP59
METAR KP59 111151Z AUTO 01012G19KT M12/M15 A3016 RMK AO1 SLP234
T11171150 11111 21117 50005





000
SAUS43 KMQT 111103 COR
MTRP53
METAR KP53 111056Z AUTO 35014KT M11/M16 A3012 RMK AO1 SLP215
T11061161





000
SAUS43 KMQT 111103 COR
MTRP53
METAR KP53 111056Z AUTO 35014KT M11/M16 A3012 RMK AO1 SLP215
T11061161





000
SAUS43 KMQT 111053
MTRP59
METAR KP59 111051Z AUTO 01015G23KT M12/M15 A3016 RMK AO1 SLP235
T11171150





000
SAUS43 KMQT 111053
MTRP59
METAR KP59 111051Z AUTO 01015G23KT M12/M15 A3016 RMK AO1 SLP235
T11171150





000
SAUS43 KMQT 111005 COR
MTRP53
METAR KP53 110956Z AUTO 36014KT M11/M17 A3011 RMK AO1 SLP209
T11061167





000
SAUS43 KMQT 111005 COR
MTRP53
METAR KP53 110956Z AUTO 36014KT M11/M17 A3011 RMK AO1 SLP209
T11061167





000
SAUS43 KMQT 110954
MTRP59
METAR KP59 110951Z AUTO 01016KT M12/M16 A3015 RMK AO1 SLP232
T11171156





000
SAUS43 KMQT 110903 COR
MTRP53
METAR KP53 110856Z AUTO 01014KT M11/M14 A3010 RMK AO1 SLP206
T11111139 51014





000
SAUS43 KMQT 110853
MTRP59
METAR KP59 110851Z AUTO 02020G25KT M12/M15 A3014 RMK AO1 PK WND
03026/0754 SLP229 T11171150 51006





000
SAUS43 KMQT 110853
MTRP59
METAR KP59 110851Z AUTO 02020G25KT M12/M15 A3014 RMK AO1 PK WND
03026/0754 SLP229 T11171150 51006





000
SAUS43 KMQT 110804 COR
MTRP53
METAR KP53 110756Z AUTO 36014KT M11/M17 A3008 RMK AO1 SLP201
T11111167





000
SAUS43 KMQT 110752
MTRP59
METAR KP59 110751Z AUTO 02017G24KT M12/M15 A3014 RMK AO1 SLP228
T11171150





000
SAUS43 KMQT 110704 COR
MTRP53
METAR KP53 110656Z AUTO 35014KT M11/M17 A3007 RMK AO1 SLP198
T11111167





000
SAUS43 KMQT 110704 COR
MTRP53
METAR KP53 110656Z AUTO 35014KT M11/M17 A3007 RMK AO1 SLP198
T11111167





000
SAUS43 KMQT 110653
MTRP59
METAR KP59 110651Z AUTO 04015G21KT M11/M14 A3013 RMK AO1 SLP224
T11111144





000
SAUS43 KMQT 110653
MTRP59
METAR KP59 110651Z AUTO 04015G21KT M11/M14 A3013 RMK AO1 SLP224
T11111144





000
SAUS43 KMQT 110604 COR
MTRP53
METAR KP53 110556Z AUTO 36015G23KT M11/M14 A3006 RMK AO1 SLP192
60002 T11111139 11100 21111 52005





000
SAUS43 KMQT 110604 COR
MTRP53
METAR KP53 110556Z AUTO 36015G23KT M11/M14 A3006 RMK AO1 SLP192
60002 T11111139 11100 21111 52005





000
SAUS43 KMQT 110554
MTRP59
METAR KP59 110551Z AUTO 03018G24KT M11/M14 A3012 RMK AO1 PK WND
03026/0517 SLP223 T11111144 11100 21117 51010





000
SAUS43 KMQT 110554
MTRP59
METAR KP59 110551Z AUTO 03018G24KT M11/M14 A3012 RMK AO1 PK WND
03026/0517 SLP223 T11111144 11100 21117 51010





000
SAUS43 KMQT 110504 COR
MTRP53
METAR KP53 110456Z AUTO 35018KT M11/M14 A3005 RMK AO1 PK WND
36026/0405 SLP192 P0001 T11061139 410941122





000
SAUS43 KMQT 110504 COR
MTRP53
METAR KP53 110456Z AUTO 35018KT M11/M14 A3005 RMK AO1 PK WND
36026/0405 SLP192 P0001 T11061139 410941122





000
SAUS43 KMQT 110454
MTRP59
METAR KP59 110451Z AUTO 02019G26KT M12/M14 A3011 RMK AO1 PK WND
03028/0358 SLP220 T11171144 411001128





000
SAUS43 KMQT 110454
MTRP59
METAR KP59 110451Z AUTO 02019G26KT M12/M14 A3011 RMK AO1 PK WND
03028/0358 SLP220 T11171144 411001128





000
SAUS43 KMQT 110403 COR
MTRP53
METAR KP53 110356Z AUTO 35021G25KT M11/M14 A3004 RMK AO1 PK WND
36030/0304 SLP187 T11061144





000
SAUS43 KMQT 110354
MTRP59
METAR KP59 110351Z AUTO 03018G21KT M11/M15 A3011 RMK AO1 PK WND
03030/0332 SLP217 T11111150





000
SAUS43 KMQT 110305 COR
MTRP53
METAR KP53 110256Z AUTO 36015G24KT M11/M14 A3004 RMK AO1 PK WND
34028/0242 SLP187 60001 T11061144 51008





000
SAUS43 KMQT 110305 COR
MTRP53
METAR KP53 110256Z AUTO 36015G24KT M11/M14 A3004 RMK AO1 PK WND
34028/0242 SLP187 60001 T11061144 51008





000
SAUS43 KMQT 110253
MTRP59
METAR KP59 110251Z AUTO 02019G27KT M11/M15 A3009 RMK AO1 PK WND
03028/0241 SLP213 T11061150 51008





000
SAUS43 KMQT 110253
MTRP59
METAR KP59 110251Z AUTO 02019G27KT M11/M15 A3009 RMK AO1 PK WND
03028/0241 SLP213 T11061150 51008





000
SAUS43 KMQT 110204 COR
MTRP53
METAR KP53 110156Z AUTO 34020G27KT M11/M13 A3003 RMK AO1 PK WND
34027/0155 SLP184 P0001 T11061128





000
SAUS43 KMQT 110204 COR
MTRP53
METAR KP53 110156Z AUTO 34020G27KT M11/M13 A3003 RMK AO1 PK WND
34027/0155 SLP184 P0001 T11061128





000
SAUS43 KMQT 110154
MTRP59
METAR KP59 110151Z AUTO 03016G23KT M11/M15 A3009 RMK AO1 PK WND
03028/0105 SLP212 T11061150





000
SAUS43 KMQT 110104 COR
MTRP53
METAR KP53 110056Z AUTO 36015G28KT M11/M14 A3002 RMK AO1 PK WND
34028/0047 SLP181 T11061139





000
SAUS43 KMQT 110104 COR
MTRP53
METAR KP53 110056Z AUTO 36015G28KT M11/M14 A3002 RMK AO1 PK WND
34028/0047 SLP181 T11061139





000
SAUS43 KMQT 110052
MTRP59
METAR KP59 110051Z AUTO 03017G27KT M10/M14 A3008 RMK AO1 PK WND
02028/0035 SLP209 T11001139





000
SAUS43 KMQT 110052
MTRP59
METAR KP59 110051Z AUTO 03017G27KT M10/M14 A3008 RMK AO1 PK WND
02028/0035 SLP209 T11001139





000
SAUS43 KMQT 110003 COR
MTRP53
METAR KP53 102356Z AUTO 36014KT M11/M14 A3002 RMK AO1 SLP178 60002
T11061144 11106 21117 51018





000
SAUS43 KMQT 110003 COR
MTRP53
METAR KP53 102356Z AUTO 36014KT M11/M14 A3002 RMK AO1 SLP178 60002
T11061144 11106 21117 51018





000
SAUS43 KMQT 102354
MTRP59
METAR KP59 102351Z AUTO 02019G29KT M11/M15 A3007 RMK AO1 PK WND
01029/2344 SLP205 T11111150 11111 21122 51015





000
SAUS43 KMQT 102354
MTRP59
METAR KP59 102351Z AUTO 02019G29KT M11/M15 A3007 RMK AO1 PK WND
01029/2344 SLP205 T11111150 11111 21122 51015





000
SAUS43 KMQT 102304 COR
MTRP53
METAR KP53 102256Z AUTO 35014KT M11/M16 A3000 RMK AO1 PK WND
01026/2224 SLP173 T11061156





000
SAUS43 KMQT 102304 COR
MTRP53
METAR KP53 102256Z AUTO 35014KT M11/M16 A3000 RMK AO1 PK WND
01026/2224 SLP173 T11061156





000
SAUS43 KMQT 102254
MTRP59
METAR KP59 102251Z AUTO 02019G26KT M12/M16 A3005 RMK AO1 PK WND
03030/2239 SLP199 T11171156





000
SAUS43 KMQT 102254
MTRP59
METAR KP59 102251Z AUTO 02019G26KT M12/M16 A3005 RMK AO1 PK WND
03030/2239 SLP199 T11171156





000
SAUS43 KMQT 102203 COR
MTRP53
METAR KP53 102156Z AUTO 36016G25KT M11/M15 A2998 RMK AO1 PK WND
02028/2112 SLP167 T11111150





000
SAUS43 KMQT 102154
MTRP59
METAR KP59 102151Z AUTO 01021G26KT M12/M14 A3005 RMK AO1 PK WND
03027/2104 SLP198 T11171144





000
SAUS43 KMQT 102104 COR
MTRP53
METAR KP53 102056Z AUTO 01016G23KT M11/M14 A2996 RMK AO1 SLP160
P0002 60002 T11111144 53007





000
SAUS43 KMQT 102054
MTRP59
METAR KP59 102051Z AUTO 03019G23KT M11/M15 A3003 RMK AO1 SLP190
T11111150 53002





000
SAUS43 KMQT 102003 COR
MTRP53
METAR KP53 101956Z AUTO 36018KT M11/M15 A2995 RMK AO1 PK WND
36028/1900 SLP156 T11111150





000
SAUS43 KMQT 101953
MTRP59
METAR KP59 101951Z AUTO 03017G24KT M12/M15 A3002 RMK AO1 SLP188
T11171150





000
SAUS43 KMQT 101903 COR
MTRP53
METAR KP53 101856Z AUTO 36019KT M12/M16 A2994 RMK AO1 PK WND
01027/1804 SLP153 T11171161





000
SAUS43 KMQT 101853
MTRP59
METAR KP59 101851Z AUTO 03019G25KT M12/M14 A3002 RMK AO1 PK WND
02027/1822 SLP187 T11171144





000
SAUS43 KMQT 101853
MTRP59
METAR KP59 101851Z AUTO 03019G25KT M12/M14 A3002 RMK AO1 PK WND
02027/1822 SLP187 T11171144





000
SAUS43 KMQT 101806 COR
MTRP53
METAR KP53 101756Z AUTO 36021G26KT M11/M15 A2994 RMK AO1 PK WND
01029/1657 SLP152 60002 T11111150 11111 21122 50007





000
SAUS43 KMQT 101806 COR
MTRP53
METAR KP53 101756Z AUTO 36021G26KT M11/M15 A2994 RMK AO1 PK WND
01029/1657 SLP152 60002 T11111150 11111 21122 50007





000
SAUS43 KMQT 101804 COR
MTRP53
METAR KP53 101756Z AUTO 36021G26KT M11/M15 A2994 RMK AO1 PK WND
01029/1657 SLP152 60002 T11111150 11111 21122 50007





000
SAUS43 KMQT 101804 COR
MTRP53
METAR KP53 101756Z AUTO 36021G26KT M11/M15 A2994 RMK AO1 PK WND
01029/1657 SLP152 60002 T11111150 11111 21122 50007





000
SAUS43 KMQT 101754
MTRP59
METAR KP59 101751Z AUTO 04017G24KT M12/M16 A3002 RMK AO1 PK WND
03026/1722 SLP188 T11221156 11117 21128 50005





000
SAUS43 KMQT 101754
MTRP59
METAR KP59 101751Z AUTO 04017G24KT M12/M16 A3002 RMK AO1 PK WND
03026/1722 SLP188 T11221156 11117 21128 50005





000
SAUS43 KMQT 101704 COR
MTRP53
METAR KP53 101656Z AUTO 01020KT M12/M16 A2995 RMK AO1 PK WND
02027/1612 SLP155 T11171156





000
SAUS43 KMQT 101704 COR
MTRP53
METAR KP53 101656Z AUTO 01020KT M12/M16 A2995 RMK AO1 PK WND
02027/1612 SLP155 T11171156





000
SAUS43 KMQT 101654
MTRP59
METAR KP59 101651Z AUTO 06019G25KT M12/M15 A3002 RMK AO1 PK WND
05027/1628 SLP189 T11221150





000
SAUS43 KMQT 101604 COR
MTRP53
METAR KP53 101556Z AUTO 01020KT M12/M15 A2993 RMK AO1 PK WND
01028/1521 SLP150 T11171150





000
SAUS43 KMQT 101604 COR
MTRP53
METAR KP53 101556Z AUTO 01020KT M12/M15 A2993 RMK AO1 PK WND
01028/1521 SLP150 T11171150





000
SAUS43 KMQT 101552
MTRP59
METAR KP59 101551Z AUTO 04014G22KT M12/M15 A3002 RMK AO1 PK WND
06028/1521 SLP188 T11221150





000
SAUS43 KMQT 101552
MTRP59
METAR KP59 101551Z AUTO 04014G22KT M12/M15 A3002 RMK AO1 PK WND
06028/1521 SLP188 T11221150





000
SAUS43 KMQT 101504 COR
MTRP53
METAR KP53 101456Z AUTO 01019KT M12/M16 A2992 RMK AO1 PK WND
01026/1413 SLP143 P0001 60002 T11171156 51015





000
SAUS43 KMQT 101453
MTRP59
METAR KP59 101451Z AUTO 06020G26KT M12/M15 A3001 RMK AO1 PK WND
03028/1410 SLP183 T11221150 51015





000
SAUS43 KMQT 101453
MTRP59
METAR KP59 101451Z AUTO 06020G26KT M12/M15 A3001 RMK AO1 PK WND
03028/1410 SLP183 T11221150 51015





000
SAUS43 KMQT 101403 COR
MTRP53
METAR KP53 101356Z AUTO 36017KT M12/M14 A2990 RMK AO1 PK WND
36028/1344 SLP140 P0001 T11221144





000
SAUS43 KMQT 101403 COR
MTRP53
METAR KP53 101356Z AUTO 36017KT M12/M14 A2990 RMK AO1 PK WND
36028/1344 SLP140 P0001 T11221144





000
SAUS43 KMQT 101354
MTRP59
METAR KP59 101351Z AUTO 05017G29KT M12/M14 A2999 RMK AO1 PK WND
06029/1350 SLP179 T11221144





000
SAUS43 KMQT 101303 COR
MTRP53
METAR KP53 101256Z AUTO 36022G27KT M12/M14 A2989 RMK AO1 PK WND
02028/1214 SLP134 T11221144





000
SAUS43 KMQT 101303 COR
MTRP53
METAR KP53 101256Z AUTO 36022G27KT M12/M14 A2989 RMK AO1 PK WND
02028/1214 SLP134 T11221144





000
SAUS43 KMQT 101254
MTRP59
METAR KP59 101251Z AUTO 05018G26KT M12/M14 A2998 RMK AO1 PK WND
03027/1210 SLP173 T11221144





000
SAUS43 KMQT 101203 COR
MTRP53
METAR KP53 101156Z AUTO 36018KT M11/M15 A2987 RMK AO1 PK WND
35027/1116 SLP128 60004 70015 T11111150 11100 21117 53006





000
SAUS43 KMQT 101203 COR
MTRP53
METAR KP53 101156Z AUTO 36018KT M11/M15 A2987 RMK AO1 PK WND
35027/1116 SLP128 60004 70015 T11111150 11100 21117 53006





000
SAUS43 KMQT 101152
MTRP59
METAR KP59 101151Z AUTO 03023G27KT M12/M14 A2996 RMK AO1 PK WND
03027/1151 SLP167 T11171144 11106 21128 53002





000
SAUS43 KMQT 101152
MTRP59
METAR KP59 101151Z AUTO 03023G27KT M12/M14 A2996 RMK AO1 PK WND
03027/1151 SLP167 T11171144 11106 21128 53002





000
SAUS43 KMQT 101104 COR
MTRP53
METAR KP53 101056Z AUTO 36018G25KT M12/M14 A2986 RMK AO1 PK WND
34027/1013 SLP125 T11171144





000
SAUS43 KMQT 101104 COR
MTRP53
METAR KP53 101056Z AUTO 36018G25KT M12/M14 A2986 RMK AO1 PK WND
34027/1013 SLP125 T11171144





000
SAUS43 KMQT 101054
MTRP59
METAR KP59 101051Z AUTO 04018G30KT M12/M14 A2996 RMK AO1 PK WND
03032/1007 SLP168 T11221144





000
SAUS43 KMQT 101054
MTRP59
METAR KP59 101051Z AUTO 04018G30KT M12/M14 A2996 RMK AO1 PK WND
03032/1007 SLP168 T11221144





000
SAUS43 KMQT 100953
MTRP59
METAR KP59 100951Z AUTO 03022G28KT M12/M14 A2995 RMK AO1 PK WND
02032/0932 SLP163 T11171139





000
SAUS43 KMQT 100905 COR
MTRP53
METAR KP53 100856Z AUTO 35018G27KT M11/M14 A2985 RMK AO1 PK WND
36027/0854 SLP121 P0001 60003 T11061139 53002





000
SAUS43 KMQT 100854
MTRP59
METAR KP59 100851Z AUTO 03020G29KT M12/M14 A2996 RMK AO1 PK WND
02032/0753 SLP165 T11221144 53003





000
SAUS43 KMQT 100804 COR
MTRP53
METAR KP53 100756Z AUTO 36018KT M11/M13 A2985 RMK AO1 PK WND
01029/0724 SLP121 T11061128





000
SAUS43 KMQT 100804 COR
MTRP53
METAR KP53 100756Z AUTO 36018KT M11/M13 A2985 RMK AO1 PK WND
01029/0724 SLP121 T11061128





000
SAUS43 KMQT 100754
MTRP59
METAR KP59 100751Z AUTO 03026G32KT M12/M14 A2995 RMK AO1 PK WND
03032/0718 SLP162 T11171139





000
SAUS43 KMQT 100703 COR
MTRP53
METAR KP53 100656Z AUTO 01022G27KT M10/M13 A2984 RMK AO1 PK WND
36029/0604 SLP118 P0002 T11001128





000
SAUS43 KMQT 100652
MTRP59
METAR KP59 100651Z AUTO 03020G29KT M11/M13 A2995 RMK AO1 PK WND
05032/0558 SLP161 T11111128





000
SAUS43 KMQT 100652
MTRP59
METAR KP59 100651Z AUTO 03020G29KT M11/M13 A2995 RMK AO1 PK WND
05032/0558 SLP161 T11111128





000
SAUS43 KMQT 100552
MTRP59
METAR KP59 100551Z AUTO 05021G32KT M11/M13 A2995 RMK AO1 PK WND
03035/0536 SLP163 T11061133 11094 21111 56004





000
SAUS43 KMQT 100552
MTRP59
METAR KP59 100551Z AUTO 05021G32KT M11/M13 A2995 RMK AO1 PK WND
03035/0536 SLP163 T11061133 11094 21111 56004





000
SAUS43 KMQT 100503 COR
MTRP53
METAR KP53 100456Z AUTO 36019G29KT M10/M12 A2984 RMK AO1 PK WND
01034/0426 SLP118 P0001 T11001122 410611100





000
SAUS43 KMQT 100503 COR
MTRP53
METAR KP53 100456Z AUTO 36019G29KT M10/M12 A2984 RMK AO1 PK WND
01034/0426 SLP118 P0001 T11001122 410611100





000
SAUS43 KMQT 100454
MTRP59
METAR KP59 100451Z AUTO 02023G33KT M11/M13 A2995 RMK AO1 PK WND
03034/0429 SLP162 T11061128 410831106





000
SAUS43 KMQT 100454
MTRP59
METAR KP59 100451Z AUTO 02023G33KT M11/M13 A2995 RMK AO1 PK WND
03034/0429 SLP162 T11061128 410831106





000
SAUS43 KMQT 100404 COR
MTRP53
METAR KP53 100356Z AUTO 36022G30KT M09/M11 A2984 RMK AO1 PK WND
01033/0321 SLP115 P0002 T10941111





000
SAUS43 KMQT 100353
MTRP59
METAR KP59 100351Z AUTO 03021G30KT M11/M13 A2996 RMK AO1 PK WND
03031/0340 SLP164 T11061128





000
SAUS43 KMQT 100353
MTRP59
METAR KP59 100351Z AUTO 03021G30KT M11/M13 A2996 RMK AO1 PK WND
03031/0340 SLP164 T11061128





000
SAUS43 KMQT 100305 COR
MTRP53
METAR KP53 100256Z AUTO 36023G32KT M09/M11 A2983 RMK AO1 PK WND
02035/0208 SLP114 P0001 60002 T10891111 50005





000
SAUS43 KMQT 100305 COR
MTRP53
METAR KP53 100256Z AUTO 36023G32KT M09/M11 A2983 RMK AO1 PK WND
02035/0208 SLP114 P0001 60002 T10891111 50005





000
SAUS43 KMQT 100303 COR
MTRP53
METAR KP53 100256Z AUTO 36023G32KT M09/M11 A2983 RMK AO1 PK WND
02035/0208 SLP114 P0001 60002 T10891111 50005





000
SAUS43 KMQT 100303 COR
MTRP53
METAR KP53 100256Z AUTO 36023G32KT M09/M11 A2983 RMK AO1 PK WND
02035/0208 SLP114 P0001 60002 T10891111 50005





000
SAUS43 KMQT 100254
MTRP59
METAR KP59 100251Z AUTO 04019G27KT M10/M12 A2996 RMK AO1 PK WND
03031/0152 SLP165 T11001122 50004





000
SAUS43 KMQT 100254
MTRP59
METAR KP59 100251Z AUTO 04019G27KT M10/M12 A2996 RMK AO1 PK WND
03031/0152 SLP165 T11001122 50004





000
SAUS43 KMQT 100152
MTRP59
METAR KP59 100151Z AUTO 04019G30KT M11/M13 A2997 RMK AO1 PK WND
03032/0110 SLP169 T11061128





000
SAUS43 KMQT 100152
MTRP59
METAR KP59 100151Z AUTO 04019G30KT M11/M13 A2997 RMK AO1 PK WND
03032/0110 SLP169 T11061128





000
SAUS43 KMQT 100104 COR
MTRP53
METAR KP53 100056Z AUTO 35024G31KT M09/M11 A2982 RMK AO1 PK WND
36033/0026 SLP111 P0001 T10891106





000
SAUS43 KMQT 100104 COR
MTRP53
METAR KP53 100056Z AUTO 35024G31KT M09/M11 A2982 RMK AO1 PK WND
36033/0026 SLP111 P0001 T10891106





000
SAUS43 KMQT 100052
MTRP59
METAR KP59 100051Z AUTO 03022G34KT M10/M12 A2997 RMK AO1 PK WND
03034/0049 SLP170 T11001117





000
SAUS43 KMQT 100052
MTRP59
METAR KP59 100051Z AUTO 03022G34KT M10/M12 A2997 RMK AO1 PK WND
03034/0049 SLP170 T11001117





000
SAUS43 KMQT 092354
MTRP59
METAR KP59 092351Z AUTO 04022G33KT M09/M12 A2995 RMK AO1 PK WND
03036/2308 SLP161 T10941117 11089 21100 51020





000
SAUS43 KMQT 092354
MTRP59
METAR KP59 092351Z AUTO 04022G33KT M09/M12 A2995 RMK AO1 PK WND
03036/2308 SLP161 T10941117 11089 21100 51020





000
SAUS43 KMQT 092303 COR
MTRP53
METAR KP53 092256Z AUTO 35024G31KT M08/M11 A2980 RMK AO1 PK WND
35036/2210 SLP104 P0001 T10831111





000
SAUS43 KMQT 092303 COR
MTRP53
METAR KP53 092256Z AUTO 35024G31KT M08/M11 A2980 RMK AO1 PK WND
35036/2210 SLP104 P0001 T10831111





000
SAUS43 KMQT 092254
MTRP59
METAR KP59 092251Z AUTO 04018G34KT M09/M12 A2993 RMK AO1 PK WND
05034/2242 SLP155 T10941117





000
SAUS43 KMQT 092154
MTRP59
METAR KP59 092151Z AUTO 04019G34KT M09/M11 A2991 RMK AO1 PK WND
03034/2133 SLP149 T10891106





000
SAUS43 KMQT 092103 COR
MTRP53
METAR KP53 092056Z AUTO 35021G33KT M08/M11 A2977 RMK AO1 PK WND
35035/2025 SLP092 P0001 60001 T10781106 53009





000
SAUS43 KMQT 092054
MTRP59
METAR KP59 092051Z AUTO 04021G31KT M09/M11 A2989 RMK AO1 PK WND
03037/2020 SLP141 T10891111 53010





000
SAUS43 KMQT 092005 COR
MTRP53
METAR KP53 091956Z AUTO 36023G29KT M08/M11 A2975 RMK AO1 PK WND
35030/1908 SLP086 T10781106





000
SAUS43 KMQT 091954
MTRP59
METAR KP59 091951Z AUTO 03029G37KT M09/M11 A2987 RMK AO1 PK WND
03037/1935 SLP133 T10941111





000
SAUS43 KMQT 091954
MTRP59
METAR KP59 091951Z AUTO 03029G37KT M09/M11 A2987 RMK AO1 PK WND
03037/1935 SLP133 T10941111





000
SAUS43 KMQT 091854
MTRP59
METAR KP59 091851Z AUTO 03023G32KT M09/M11 A2986 RMK AO1 PK WND
03036/1813 SLP130 T10891111





000
SAUS43 KMQT 091854
MTRP59
METAR KP59 091851Z AUTO 03023G32KT M09/M11 A2986 RMK AO1 PK WND
03036/1813 SLP130 T10891111





000
SAUS43 KMQT 091804 COR
MTRP53
METAR KP53 091756Z AUTO 35019G28KT M07/M10 A2974 RMK AO1 PK WND
35029/1743 SLP082 60001 T10721100 11067 21072 50005





000
SAUS43 KMQT 091804 COR
MTRP53
METAR KP53 091756Z AUTO 35019G28KT M07/M10 A2974 RMK AO1 PK WND
35029/1743 SLP082 60001 T10721100 11067 21072 50005





000
SAUS43 KMQT 091753
MTRP59
METAR KP59 091751Z AUTO 03024G34KT M09/M11 A2986 RMK AO1 PK WND
03037/1739 SLP131 T10941111 11083 21094 50007





000
SAUS43 KMQT 091705 COR
MTRP53
METAR KP53 091656Z AUTO 35018KT M07/M10 A2975 RMK AO1 PK WND
35027/1641 SLP084 T10721100





000
SAUS43 KMQT 091652
MTRP59
METAR KP59 091651Z AUTO 03025G36KT M09/M11 A2986 RMK AO1 PK WND
03036/1645 SLP131 T10891106





000
SAUS43 KMQT 091605 COR
MTRP53
METAR KP53 091556Z AUTO 35021G27KT M07/M11 A2974 RMK AO1 PK WND
35030/1510 SLP081 T10721106





000
SAUS43 KMQT 091553
MTRP59
METAR KP59 091551Z AUTO 04022G31KT M09/M11 A2985 RMK AO1 PK WND
03035/1507 SLP126 T10891106





000
SAUS43 KMQT 091505 COR
MTRP53
METAR KP53 091456Z AUTO 35022G27KT M07/M11 A2973 RMK AO1 PK WND
35029/1408 SLP077 60001 T10721106 51008





000
SAUS43 KMQT 091454
MTRP59
METAR KP59 091451Z AUTO 04022G33KT M08/M10 A2984 RMK AO1 PK WND
03035/1407 SLP123 T10831100 51012





000
SAUS43 KMQT 091404 COR
MTRP53
METAR KP53 091356Z AUTO 35017G25KT M07/M10 A2972 RMK AO1 PK WND
35027/1325 SLP076 P0001 T10721100





000
SAUS43 KMQT 091404 COR
MTRP53
METAR KP53 091356Z AUTO 35017G25KT M07/M10 A2972 RMK AO1 PK WND
35027/1325 SLP076 P0001 T10721100





000
SAUS43 KMQT 091353
MTRP59
METAR KP59 091351Z AUTO 03024G30KT M08/M11 A2982 RMK AO1 PK WND
03030/1332 SLP118 T10831106





000
SAUS43 KMQT 091303 COR
MTRP53
METAR KP53 091256Z AUTO 36019KT M07/M10 A2972 RMK AO1 PK WND
35028/1202 SLP074 T10671100





000
SAUS43 KMQT 091303 COR
MTRP53
METAR KP53 091256Z AUTO 36019KT M07/M10 A2972 RMK AO1 PK WND
35028/1202 SLP074 T10671100





000
SAUS43 KMQT 091252
MTRP59
METAR KP59 091251Z AUTO 04020G27KT M09/M11 A2982 RMK AO1 PK WND
03033/1207 SLP115 T10891111





000
SAUS43 KMQT 091205 COR
MTRP53
METAR KP53 091156Z AUTO 35020G26KT M07/M10 A2970 RMK AO1 PK WND
35029/1108 SLP069 70004 T10671100 11061 21067 53004





000
SAUS43 KMQT 091205 COR
MTRP53
METAR KP53 091156Z AUTO 35020G26KT M07/M10 A2970 RMK AO1 PK WND
35029/1108 SLP069 70004 T10671100 11061 21067 53004





000
SAUS43 KMQT 091204 COR
MTRP53
METAR KP53 091156Z AUTO 35020G26KT M07/M10 A2970 RMK AO1 PK WND
35029/1108 SLP069 70004 T10671100 11061 21067 53004





000
SAUS43 KMQT 091204 COR
MTRP53
METAR KP53 091156Z AUTO 35020G26KT M07/M10 A2970 RMK AO1 PK WND
35029/1108 SLP069 70004 T10671100 11061 21067 53004





000
SAUS43 KMQT 091154
MTRP59
METAR KP59 091151Z AUTO 03021G30KT M09/M11 A2980 RMK AO1 PK WND
03030/1149 SLP111 T10891111 11083 21094 53011





000
SAUS43 KMQT 091154
MTRP59
METAR KP59 091151Z AUTO 03021G30KT M09/M11 A2980 RMK AO1 PK WND
03030/1149 SLP111 T10891111 11083 21094 53011





000
SAUS43 KMQT 091103 COR
MTRP53
METAR KP53 091056Z AUTO 35019G26KT M07/M10 A2969 RMK AO1 PK WND
35028/1034 SLP065 T10671100





000
SAUS43 KMQT 091103 COR
MTRP53
METAR KP53 091056Z AUTO 35019G26KT M07/M10 A2969 RMK AO1 PK WND
35028/1034 SLP065 T10671100





000
SAUS43 KMQT 091053
MTRP59
METAR KP59 091051Z AUTO 03022G28KT M09/M11 A2979 RMK AO1 PK WND
02031/1007 SLP105 T10891111





000
SAUS43 KMQT 091003 COR
MTRP53
METAR KP53 090956Z AUTO 35018G28KT M07/M09 A2969 RMK AO1 PK WND
35028/0947 SLP065 T10671089





000
SAUS43 KMQT 090953
MTRP59
METAR KP59 090951Z AUTO 04019G31KT M09/M11 A2978 RMK AO1 PK WND
03031/0946 SLP103 T10891106





000
SAUS43 KMQT 090903 COR
MTRP53
METAR KP53 090856Z AUTO 35019G24KT M07/M09 A2969 RMK AO1 SLP065
T10671089 56004





000
SAUS43 KMQT 090903 COR
MTRP53
METAR KP53 090856Z AUTO 35019G24KT M07/M09 A2969 RMK AO1 SLP065
T10671089 56004





000
SAUS43 KMQT 090854
MTRP59
METAR KP59 090851Z AUTO 03023G31KT M09/M11 A2977 RMK AO1 PK WND
02031/0844 SLP100 T10891106 53000





000
SAUS43 KMQT 090854
MTRP59
METAR KP59 090851Z AUTO 03023G31KT M09/M11 A2977 RMK AO1 PK WND
02031/0844 SLP100 T10891106 53000





000
SAUS43 KMQT 090805 COR
MTRP53
METAR KP53 090756Z AUTO 35018KT M06/M09 A2969 RMK AO1 PK WND
36026/0730 SLP064 T10611094





000
SAUS43 KMQT 090753
MTRP59
METAR KP59 090751Z AUTO 03023G28KT M09/M11 A2977 RMK AO1 PK WND
03028/0727 SLP099 T10891106





000
SAUS43 KMQT 090704 COR
MTRP53
METAR KP53 090656Z AUTO 35016KT M06/M09 A2968 RMK AO1 SLP062
T10611094





000
SAUS43 KMQT 090704 COR
MTRP53
METAR KP53 090656Z AUTO 35016KT M06/M09 A2968 RMK AO1 SLP062
T10611094





000
SAUS43 KMQT 090652
MTRP59
METAR KP59 090651Z AUTO 03021G27KT M08/M11 A2976 RMK AO1 PK WND
03028/0630 SLP098 T10831111





000
SAUS43 KMQT 090652
MTRP59
METAR KP59 090651Z AUTO 03021G27KT M08/M11 A2976 RMK AO1 PK WND
03028/0630 SLP098 T10831111





000
SAUS43 KMQT 090606 COR
MTRP53
METAR KP53 090556Z AUTO 34016G24KT M06/M09 A2970 RMK AO1 PK WND
33027/0510 SLP067 T10611094 11061 21072 58006





000
SAUS43 KMQT 090554
MTRP59
METAR KP59 090551Z AUTO 03020G27KT M08/M11 A2977 RMK AO1 PK WND
02029/0529 SLP099 T10831106 11078 21089 56002





    US Dept of Commerce
    National Oceanic and Atmospheric Administration
    National Weather Service
    1325 East West Highway
    Silver Spring, MD 20910
    Page Author: NWS Internet Services Team
Disclaimer
Information Quality
Credits
Glossary
Privacy Policy
Freedom of Information Act (FOIA)
About Us
Career Opportunities